Jackson, Tennessee
Current Conditions -  °F | °C
As of 4:53 PM on Wednesday 22 Oct 2014 (Local Time) from KMKL Reporting Station
Clear Clear  
Wind Chill: 66°   Ceiling: Unl
Heat Index: 66°   Visibility: 10mi
Dew Point: 41°   Wind: 8mph
Humidity: 40%   Direction: 40°NE
Pressure: 30.18"   Gusts: NA
Location:  35.61°N, 88.82°W
Report Text: KMKL 222153Z 04007KT 10SM CLR 19/05 A3018 RMK AO2 SLP219 T01890050
Loading
Personal Weather Stations






























Interactive Weather Map
Tropical Storm Tracking
New forecast layout! Learn more

10-Day Weather Forecast

Advertisements
Track Severe Weather on mobile